Time;durP1;ratioP1;P1;durP2;ratioP2;P2;SDS_P1;SDS_P2;PMS_P1;PMS_P2;Temp;Humidity;BMP_temperature;BMP_pressure;BME280_temperature;BME280_humidity;BME280_pressure;Samples;Min_cycle;Max_cycle;Signal;HPM_P1;HPM_P2
2023/09/03 00:01:50;;;;;;;6.60;5.90;;;;;;;;;;5042862;28;20453;-80
2023/09/03 00:04:16;;;;;;;9.03;6.43;;;;;;;;;;5053221;28;20472;-81
2023/09/03 00:06:42;;;;;;;8.67;7.87;;;;;;;;;;5060367;28;20458;-81
2023/09/03 00:09:09;;;;;;;7.90;7.20;;;;;;;;;;5042685;28;21011;-81
2023/09/03 00:11:35;;;;;;;10.00;8.10;;;;;;;;;;5033655;28;20453;-81
2023/09/03 00:14:03;;;;;;;9.03;8.17;;;;;;;;;;5045283;28;20472;-81
2023/09/03 00:16:29;;;;;;;9.50;8.50;;;;;;;;;;5064795;28;20483;-81
2023/09/03 00:18:56;;;;;;;9.43;7.90;;;;;;;;;;5055648;28;20454;-82
2023/09/03 00:21:22;;;;;;;8.60;7.70;;;;;;;;;;5044947;28;20479;-81
2023/09/03 00:23:51;;;;;;;9.90;8.33;;;;;;;;;;5056505;28;20458;-82
2023/09/03 00:26:21;;;;;;;9.83;7.80;;;;;;;;;;5064372;28;20461;-81
2023/09/03 00:28:47;;;;;;;8.67;7.73;;;;;;;;;;5051336;28;20848;-81
2023/09/03 00:31:16;;;;;;;10.40;8.40;;;;;;;;;;5052560;28;20504;-81
2023/09/03 00:33:42;;;;;;;8.73;7.80;;;;;;;;;;5054958;28;20468;-83
2023/09/03 00:36:09;;;;;;;9.47;8.47;;;;;;;;;;5058633;28;20489;-81
2023/09/03 00:38:36;;;;;;;9.00;8.10;;;;;;;;;;5053241;28;20960;-81
2023/09/03 00:41:04;;;;;;;8.27;7.13;;;;;;;;;;5046506;28;20476;-81
2023/09/03 00:43:31;;;;;;;9.30;6.90;;;;;;;;;;5053157;28;20498;-82
2023/09/03 00:45:58;;;;;;;11.93;7.60;;;;;;;;;;5049419;28;20445;-81
2023/09/03 00:48:28;;;;;;;6.60;6.00;;;;;;;;;;5056056;28;20494;-81
2023/09/03 00:50:56;;;;;;;7.23;5.70;;;;;;;;;;5048803;28;20452;-81
2023/09/03 00:53:23;;;;;;;6.40;5.80;;;;;;;;;;5030398;28;20456;-81
2023/09/03 00:55:49;;;;;;;8.23;7.40;;;;;;;;;;5059658;28;20483;-81
2023/09/03 00:58:17;;;;;;;8.80;7.90;;;;;;;;;;5046935;28;21006;-81
2023/09/03 01:00:44;;;;;;;10.10;9.07;;;;;;;;;;5057505;28;20443;-81
2023/09/03 01:03:10;;;;;;;8.53;7.43;;;;;;;;;;5049816;28;20488;-81
2023/09/03 01:05:38;;;;;;;8.33;7.53;;;;;;;;;;5050699;28;21000;-80
2023/09/03 01:08:04;;;;;;;9.97;8.13;;;;;;;;;;5050874;28;20999;-80
2023/09/03 01:10:35;;;;;;;11.77;8.60;;;;;;;;;;5050754;28;20462;-81
2023/09/03 01:13:05;;;;;;;9.23;8.33;;;;;;;;;;5045206;28;20468;-81
2023/09/03 01:15:34;;;;;;;9.60;8.70;;;;;;;;;;5047249;28;20443;-80
2023/09/03 01:18:05;;;;;;;11.07;9.93;;;;;;;;;;5051215;28;20459;-81
2023/09/03 01:20:33;;;;;;;13.07;11.53;;;;;;;;;;5041365;28;20476;-80
2023/09/03 01:23:14;;;;;;;10.53;9.43;;;;;;;;;;5042293;28;20487;-81
2023/09/03 01:25:51;;;;;;;10.27;8.30;;;;;;;;;;5059476;28;21023;-80
2023/09/03 01:28:24;;;;;;;9.83;8.70;;;;;;;;;;5050143;28;20761;-80
2023/09/03 01:30:52;;;;;;;14.03;8.10;;;;;;;;;;5046392;28;20484;-80
2023/09/03 01:33:18;;;;;;;12.50;8.70;;;;;;;;;;5049653;28;20523;-81
2023/09/03 01:35:45;;;;;;;10.50;8.80;;;;;;;;;;5047419;28;21012;-81
2023/09/03 01:38:11;;;;;;;13.40;8.57;;;;;;;;;;5048493;28;20482;-81
2023/09/03 01:40:39;;;;;;;9.17;8.20;;;;;;;;;;5044903;28;20443;-81
2023/09/03 01:43:05;;;;;;;12.03;9.47;;;;;;;;;;5043544;28;20480;-81
2023/09/03 01:45:36;;;;;;;12.57;10.50;;;;;;;;;;5046960;28;20449;-81
2023/09/03 01:48:08;;;;;;;13.23;8.83;;;;;;;;;;5051623;28;20434;-81
2023/09/03 01:50:40;;;;;;;10.23;9.13;;;;;;;;;;5060625;28;20504;-81
2023/09/03 01:53:11;;;;;;;11.50;8.70;;;;;;;;;;5041060;28;20455;-81
2023/09/03 01:55:41;;;;;;;8.20;7.40;;;;;;;;;;5055880;28;21007;-81
2023/09/03 01:58:08;;;;;;;11.43;8.73;;;;;;;;;;5051630;28;20468;-81
2023/09/03 02:00:36;;;;;;;13.10;8.27;;;;;;;;;;5048521;28;20489;-81
2023/09/03 02:03:03;;;;;;;9.50;8.50;;;;;;;;;;5052129;28;20446;-81
2023/09/03 02:05:31;;;;;;;11.43;10.07;;;;;;;;;;5058662;28;20479;-81
2023/09/03 02:07:59;;;;;;;8.43;7.60;;;;;;;;;;5041274;28;20985;-81
2023/09/03 02:10:25;;;;;;;11.43;9.57;;;;;;;;;;5056707;28;20458;-80
2023/09/03 02:12:52;;;;;;;10.93;9.03;;;;;;;;;;5056290;28;20456;-81
2023/09/03 02:15:18;;;;;;;11.10;9.73;;;;;;;;;;5055601;28;20469;-81
2023/09/03 02:17:46;;;;;;;12.83;8.83;;;;;;;;;;5048369;28;20494;-81
2023/09/03 02:20:12;;;;;;;13.17;10.40;;;;;;;;;;5048399;28;20445;-81
2023/09/03 02:22:39;;;;;;;11.13;9.63;;;;;;;;;;5023511;28;21030;-81
2023/09/03 02:25:05;;;;;;;10.33;8.80;;;;;;;;;;5050461;28;20456;-81
2023/09/03 02:27:32;;;;;;;13.33;10.80;;;;;;;;;;5067988;28;20437;-81
2023/09/03 02:29:58;;;;;;;13.30;11.60;;;;;;;;;;5057923;28;20472;-81
2023/09/03 02:32:24;;;;;;;14.00;10.40;;;;;;;;;;5047846;28;20465;-80
2023/09/03 02:34:52;;;;;;;13.37;10.53;;;;;;;;;;5056929;28;20833;-81
2023/09/03 02:37:19;;;;;;;13.13;9.80;;;;;;;;;;5060272;28;20466;-81
2023/09/03 02:39:45;;;;;;;12.40;10.03;;;;;;;;;;5054347;28;20476;-81
2023/09/03 02:42:11;;;;;;;11.90;10.43;;;;;;;;;;5056055;28;20490;-81
2023/09/03 02:44:38;;;;;;;12.37;10.60;;;;;;;;;;5049346;28;20442;-81
2023/09/03 02:47:04;;;;;;;10.93;9.60;;;;;;;;;;5043190;28;20478;-81
2023/09/03 02:49:31;;;;;;;12.73;10.73;;;;;;;;;;5049781;28;20523;-81
2023/09/03 02:51:58;;;;;;;12.60;10.80;;;;;;;;;;5052885;28;21002;-81
2023/09/03 02:54:25;;;;;;;10.70;9.60;;;;;;;;;;5052745;28;20990;-81
2023/09/03 02:56:51;;;;;;;12.00;10.80;;;;;;;;;;5051554;28;20447;-81
2023/09/03 02:59:20;;;;;;;13.93;11.90;;;;;;;;;;5040397;28;20885;-81
2023/09/03 03:01:46;;;;;;;13.33;11.80;;;;;;;;;;5042121;28;20465;-81
2023/09/03 03:04:13;;;;;;;14.50;11.03;;;;;;;;;;5052787;28;20471;-81
2023/09/03 03:06:39;;;;;;;13.00;11.70;;;;;;;;;;5056392;28;20479;-81
2023/09/03 03:09:07;;;;;;;14.33;10.13;;;;;;;;;;5045688;28;20464;-81
2023/09/03 03:11:33;;;;;;;13.77;11.43;;;;;;;;;;5043987;28;20471;-81
2023/09/03 03:14:00;;;;;;;15.23;12.63;;;;;;;;;;5055051;28;20476;-81
2023/09/03 03:16:26;;;;;;;11.70;10.27;;;;;;;;;;5065511;28;20441;-81
2023/09/03 03:18:53;;;;;;;13.77;11.00;;;;;;;;;;5049169;28;20963;-81
2023/09/03 03:21:20;;;;;;;12.43;10.97;;;;;;;;;;5056112;28;20436;-81
2023/09/03 03:23:47;;;;;;;13.10;11.00;;;;;;;;;;5051273;28;20548;-81
2023/09/03 03:26:14;;;;;;;14.37;11.37;;;;;;;;;;5042387;28;20467;-81
2023/09/03 03:28:41;;;;;;;15.10;11.17;;;;;;;;;;5039711;28;20460;-81
2023/09/03 03:31:11;;;;;;;16.37;11.83;;;;;;;;;;5057353;28;20477;-82
2023/09/03 03:33:37;;;;;;;14.10;10.80;;;;;;;;;;5054898;28;20500;-81
2023/09/03 03:36:04;;;;;;;12.20;10.90;;;;;;;;;;5053375;28;20447;-81
2023/09/03 03:38:31;;;;;;;12.20;10.90;;;;;;;;;;5043450;28;20858;-81
2023/09/03 03:41:04;;;;;;;14.30;10.60;;;;;;;;;;5039563;28;20453;-81
2023/09/03 03:43:32;;;;;;;11.30;9.37;;;;;;;;;;5044928;28;20471;-81
2023/09/03 03:45:58;;;;;;;12.73;10.40;;;;;;;;;;5042879;28;20705;-81
2023/09/03 03:48:25;;;;;;;10.00;8.60;;;;;;;;;;5054548;28;20461;-81
2023/09/03 03:50:54;;;;;;;11.43;10.30;;;;;;;;;;5047358;28;20448;-81
2023/09/03 03:53:20;;;;;;;11.53;10.43;;;;;;;;;;5053969;28;20479;-82
2023/09/03 03:55:47;;;;;;;13.53;10.87;;;;;;;;;;5049106;28;20453;-81
2023/09/03 03:58:14;;;;;;;14.03;12.23;;;;;;;;;;5050821;28;20454;-81
2023/09/03 04:00:42;;;;;;;11.10;10.00;;;;;;;;;;5039669;28;21027;-81
2023/09/03 04:03:10;;;;;;;11.53;8.07;;;;;;;;;;5056153;28;20990;-81
2023/09/03 04:05:36;;;;;;;12.00;10.67;;;;;;;;;;5044930;28;20993;-81
2023/09/03 04:08:03;;;;;;;11.50;10.30;;;;;;;;;;5040480;28;20486;-81
2023/09/03 04:10:29;;;;;;;12.53;10.90;;;;;;;;;;5044236;28;20439;-81
2023/09/03 04:12:56;;;;;;;11.00;9.90;;;;;;;;;;5056946;28;20492;-81
2023/09/03 04:15:23;;;;;;;12.60;10.63;;;;;;;;;;5047437;28;20440;-81
2023/09/03 04:17:50;;;;;;;15.13;11.47;;;;;;;;;;5057967;28;20437;-81
2023/09/03 04:20:17;;;;;;;10.73;9.60;;;;;;;;;;5043134;28;20484;-80
2023/09/03 04:22:43;;;;;;;10.93;9.60;;;;;;;;;;5057907;28;20819;-80
2023/09/03 04:25:10;;;;;;;11.00;9.40;;;;;;;;;;5048374;28;20995;-81
2023/09/03 04:27:36;;;;;;;11.37;8.40;;;;;;;;;;5043043;28;20466;-80
2023/09/03 04:30:04;;;;;;;11.97;9.87;;;;;;;;;;5037322;28;20997;-80
2023/09/03 04:32:31;;;;;;;9.63;8.63;;;;;;;;;;5049285;28;20485;-80
2023/09/03 04:34:59;;;;;;;10.60;9.50;;;;;;;;;;5045599;28;20878;-80
2023/09/03 04:37:25;;;;;;;11.67;10.50;;;;;;;;;;5056421;28;20453;-80
2023/09/03 04:39:51;;;;;;;10.60;9.43;;;;;;;;;;5057940;28;20472;-80
2023/09/03 04:42:18;;;;;;;10.23;9.13;;;;;;;;;;5041241;28;20468;-80
2023/09/03 04:44:44;;;;;;;11.37;10.27;;;;;;;;;;5039515;28;20475;-80
2023/09/03 04:47:10;;;;;;;9.50;8.43;;;;;;;;;;5035061;28;20456;-80
2023/09/03 04:49:37;;;;;;;13.07;11.50;;;;;;;;;;5057250;28;20449;-80
2023/09/03 04:52:05;;;;;;;13.80;10.87;;;;;;;;;;5051215;28;20450;-80
2023/09/03 04:54:32;;;;;;;15.50;11.83;;;;;;;;;;5045227;28;20453;-80
2023/09/03 04:56:58;;;;;;;13.13;11.33;;;;;;;;;;5043686;28;20483;-80
2023/09/03 04:59:25;;;;;;;11.60;9.93;;;;;;;;;;5046470;28;20471;-80
2023/09/03 05:01:51;;;;;;;11.27;9.80;;;;;;;;;;5036461;28;20458;-80
2023/09/03 05:04:17;;;;;;;12.10;10.80;;;;;;;;;;5046591;28;20476;-80
2023/09/03 05:06:44;;;;;;;13.60;11.03;;;;;;;;;;5049206;28;21000;-80
2023/09/03 05:09:12;;;;;;;13.23;10.97;;;;;;;;;;5050840;28;20538;-80
2023/09/03 05:11:39;;;;;;;13.13;11.30;;;;;;;;;;5046087;28;20458;-80
2023/09/03 05:14:06;;;;;;;14.90;11.23;;;;;;;;;;5050983;28;20463;-80
2023/09/03 05:16:32;;;;;;;12.67;10.90;;;;;;;;;;5039456;28;20448;-80
2023/09/03 05:19:04;;;;;;;17.10;11.30;;;;;;;;;;5047749;28;21031;-81
2023/09/03 05:21:31;;;;;;;12.43;11.13;;;;;;;;;;5046634;28;20494;-80
2023/09/03 05:23:59;;;;;;;13.30;10.80;;;;;;;;;;5046235;28;20459;-81
2023/09/03 05:26:26;;;;;;;16.20;11.43;;;;;;;;;;5040014;28;21106;-80
2023/09/03 05:28:53;;;;;;;14.07;11.17;;;;;;;;;;5054605;28;20480;-80
2023/09/03 05:31:19;;;;;;;13.37;11.40;;;;;;;;;;5044649;28;20492;-80
2023/09/03 05:33:45;;;;;;;15.20;13.03;;;;;;;;;;5056142;28;20488;-81
2023/09/03 05:36:12;;;;;;;14.33;12.00;;;;;;;;;;5047303;28;20451;-80
2023/09/03 05:38:39;;;;;;;14.90;11.97;;;;;;;;;;5050261;28;20500;-80
2023/09/03 05:41:06;;;;;;;13.47;11.60;;;;;;;;;;5057770;28;20455;-80
2023/09/03 05:43:34;;;;;;;14.40;12.03;;;;;;;;;;5063971;28;20482;-80
2023/09/03 05:46:00;;;;;;;14.40;12.90;;;;;;;;;;5055959;28;20476;-80
2023/09/03 05:48:27;;;;;;;21.20;13.70;;;;;;;;;;5056278;28;20466;-81
2023/09/03 05:50:57;;;;;;;16.50;13.23;;;;;;;;;;5052567;28;20453;-80
2023/09/03 05:53:23;;;;;;;16.27;12.70;;;;;;;;;;5052937;28;20483;-81
2023/09/03 05:55:50;;;;;;;16.57;12.40;;;;;;;;;;5050753;28;20484;-80
2023/09/03 05:58:17;;;;;;;16.57;12.10;;;;;;;;;;5050890;28;20465;-80
2023/09/03 06:00:45;;;;;;;14.90;12.43;;;;;;;;;;5039433;28;20525;-80
2023/09/03 06:03:12;;;;;;;16.50;12.30;;;;;;;;;;5043856;28;20928;-80
2023/09/03 06:05:39;;;;;;;16.93;12.40;;;;;;;;;;5051337;28;20477;-80
2023/09/03 06:08:05;;;;;;;16.90;13.60;;;;;;;;;;5040030;28;20483;-81
2023/09/03 06:10:34;;;;;;;16.40;13.97;;;;;;;;;;5057886;28;20471;-80
2023/09/03 06:13:00;;;;;;;19.63;14.10;;;;;;;;;;5058572;28;20494;-80
2023/09/03 06:15:27;;;;;;;18.90;14.50;;;;;;;;;;5058665;28;21197;-80
2023/09/03 06:17:54;;;;;;;16.00;14.03;;;;;;;;;;5044915;28;20471;-80
2023/09/03 06:20:21;;;;;;;18.47;14.97;;;;;;;;;;5048114;28;20472;-80
2023/09/03 06:22:47;;;;;;;22.40;16.40;;;;;;;;;;5046761;28;20487;-80
2023/09/03 06:25:13;;;;;;;21.50;17.43;;;;;;;;;;5056570;28;20457;-80
2023/09/03 06:27:40;;;;;;;17.77;15.50;;;;;;;;;;5057186;28;20483;-80
2023/09/03 06:30:07;;;;;;;18.00;15.67;;;;;;;;;;5037396;28;20451;-80
2023/09/03 06:32:34;;;;;;;20.40;16.17;;;;;;;;;;5045211;28;20491;-80
2023/09/03 06:35:01;;;;;;;20.43;15.50;;;;;;;;;;5041948;28;20481;-80
2023/09/03 06:37:28;;;;;;;19.67;15.60;;;;;;;;;;5060422;28;20500;-80
2023/09/03 06:39:54;;;;;;;20.33;15.17;;;;;;;;;;5057080;28;20442;-80
2023/09/03 06:42:21;;;;;;;20.70;16.70;;;;;;;;;;5053393;28;20518;-80
2023/09/03 06:44:47;;;;;;;19.63;15.60;;;;;;;;;;5044691;28;20471;-80
2023/09/03 06:47:14;;;;;;;18.87;15.07;;;;;;;;;;5048092;28;20461;-80
2023/09/03 06:49:40;;;;;;;20.80;17.27;;;;;;;;;;5046139;28;20507;-80
2023/09/03 06:52:08;;;;;;;18.30;16.17;;;;;;;;;;5051724;28;20487;-80
2023/09/03 06:54:35;;;;;;;20.10;14.77;;;;;;;;;;5052744;28;20488;-80
2023/09/03 06:57:02;;;;;;;16.80;14.60;;;;;;;;;;5051366;28;20574;-80
2023/09/03 06:59:28;;;;;;;14.57;13.07;;;;;;;;;;5056657;27;20537;-80
2023/09/03 07:01:54;;;;;;;21.30;13.20;;;;;;;;;;5050035;28;20481;-80
2023/09/03 07:04:21;;;;;;;15.10;13.40;;;;;;;;;;5052882;28;20479;-80
2023/09/03 07:06:47;;;;;;;14.50;12.97;;;;;;;;;;5050809;28;20489;-80
2023/09/03 07:09:17;;;;;;;14.00;12.47;;;;;;;;;;5054301;28;20468;-80
2023/09/03 07:11:43;;;;;;;12.77;11.43;;;;;;;;;;5038742;28;20856;-80
2023/09/03 07:14:10;;;;;;;13.40;12.03;;;;;;;;;;5047489;28;20505;-79
2023/09/03 07:16:37;;;;;;;11.80;10.57;;;;;;;;;;5052849;28;20534;-79
2023/09/03 07:19:03;;;;;;;11.90;10.70;;;;;;;;;;5049693;28;21730;-80
2023/09/03 07:21:29;;;;;;;12.90;11.70;;;;;;;;;;5048894;28;20487;-79
2023/09/03 07:23:56;;;;;;;14.30;11.20;;;;;;;;;;5045108;28;20480;-80
2023/09/03 07:26:24;;;;;;;13.03;11.73;;;;;;;;;;5055557;28;20864;-79
2023/09/03 07:28:50;;;;;;;14.37;10.97;;;;;;;;;;5058551;28;20480;-80
2023/09/03 07:31:17;;;;;;;16.20;10.90;;;;;;;;;;5059888;28;20491;-79
2023/09/03 07:33:44;;;;;;;13.10;10.73;;;;;;;;;;5044851;28;20534;-79
2023/09/03 07:36:11;;;;;;;13.90;11.10;;;;;;;;;;5051516;28;20474;-78
2023/09/03 07:38:38;;;;;;;11.53;9.40;;;;;;;;;;5063563;28;20475;-79
2023/09/03 07:41:04;;;;;;;11.23;9.83;;;;;;;;;;5048877;28;21020;-79
2023/09/03 07:43:32;;;;;;;11.37;9.63;;;;;;;;;;5036975;28;20536;-80
2023/09/03 07:46:00;;;;;;;12.30;9.30;;;;;;;;;;5033878;28;20932;-79
2023/09/03 07:48:27;;;;;;;9.60;8.67;;;;;;;;;;5037219;28;20555;-79
2023/09/03 07:50:53;;;;;;;11.00;8.00;;;;;;;;;;5053064;28;20474;-79
2023/09/03 07:53:20;;;;;;;9.57;8.70;;;;;;;;;;5037052;28;20464;-79
2023/09/03 07:55:46;;;;;;;8.87;7.97;;;;;;;;;;5049739;28;21158;-79
2023/09/03 07:58:13;;;;;;;9.20;8.00;;;;;;;;;;5050141;28;20494;-79
2023/09/03 08:00:41;;;;;;;7.40;6.70;;;;;;;;;;5049280;28;20494;-79
2023/09/03 08:03:08;;;;;;;12.60;6.80;;;;;;;;;;5047148;28;20471;-80
2023/09/03 08:05:34;;;;;;;7.90;7.20;;;;;;;;;;5051039;28;20480;-79
2023/09/03 08:08:01;;;;;;;7.20;6.23;;;;;;;;;;5059158;28;20488;-79
2023/09/03 08:10:27;;;;;;;6.70;5.93;;;;;;;;;;5045490;28;20859;-79
2023/09/03 08:12:53;;;;;;;6.37;5.70;;;;;;;;;;5051747;28;20483;-79
2023/09/03 08:15:20;;;;;;;5.50;5.10;;;;;;;;;;5032594;28;20471;-79
2023/09/03 08:17:47;;;;;;;5.83;5.33;;;;;;;;;;5046894;28;21367;-79
2023/09/03 08:20:14;;;;;;;5.43;4.90;;;;;;;;;;5054110;28;20466;-79
2023/09/03 08:22:40;;;;;;;5.90;5.17;;;;;;;;;;5043087;28;20484;-79
2023/09/03 08:25:07;;;;;;;7.13;4.17;;;;;;;;;;5042454;28;20464;-79
2023/09/03 08:27:33;;;;;;;9.23;5.40;;;;;;;;;;5041072;28;20463;-79
2023/09/03 08:30:00;;;;;;;5.93;5.17;;;;;;;;;;5057420;28;20696;-79
2023/09/03 08:32:26;;;;;;;7.37;5.00;;;;;;;;;;5057312;28;20486;-79
2023/09/03 08:34:54;;;;;;;5.07;4.40;;;;;;;;;;5041330;28;20544;-79
2023/09/03 08:37:20;;;;;;;5.40;4.90;;;;;;;;;;5053753;28;20859;-79
2023/09/03 08:39:47;;;;;;;6.03;5.43;;;;;;;;;;5035778;28;20476;-80
2023/09/03 08:42:15;;;;;;;5.63;5.10;;;;;;;;;;5041002;28;20572;-79
2023/09/03 08:44:43;;;;;;;5.27;4.20;;;;;;;;;;5050732;28;20462;-79
2023/09/03 08:47:10;;;;;;;6.43;5.77;;;;;;;;;;5056544;28;20482;-79
2023/09/03 08:49:39;;;;;;;6.30;5.70;;;;;;;;;;5055960;28;20475;-79
2023/09/03 08:52:08;;;;;;;5.73;4.90;;;;;;;;;;5048225;28;20459;-79
2023/09/03 08:54:35;;;;;;;5.93;5.43;;;;;;;;;;5048132;28;20459;-79
2023/09/03 08:57:01;;;;;;;3.77;3.40;;;;;;;;;;5064629;28;20456;-79
2023/09/03 08:59:28;;;;;;;4.20;3.90;;;;;;;;;;5055360;28;20842;-79
2023/09/03 09:01:55;;;;;;;4.30;3.90;;;;;;;;;;5050595;28;20484;-79
2023/09/03 09:04:21;;;;;;;7.03;5.03;;;;;;;;;;5055301;28;20486;-79
2023/09/03 09:06:49;;;;;;;5.80;4.40;;;;;;;;;;5047357;28;20500;-79
2023/09/03 09:09:17;;;;;;;6.17;4.50;;;;;;;;;;5054295;28;20483;-79
2023/09/03 09:11:46;;;;;;;5.37;3.07;;;;;;;;;;5043546;28;20867;-79
2023/09/03 09:14:17;;;;;;;5.10;4.17;;;;;;;;;;5059078;28;20475;-79
2023/09/03 09:16:43;;;;;;;7.40;5.80;;;;;;;;;;5056608;28;20516;-79
2023/09/03 09:19:09;;;;;;;6.13;4.90;;;;;;;;;;5063369;28;20517;-79
2023/09/03 09:21:36;;;;;;;6.80;4.20;;;;;;;;;;5058015;28;20851;-79
2023/09/03 09:24:02;;;;;;;4.77;3.77;;;;;;;;;;5054427;28;20826;-80
2023/09/03 09:26:32;;;;;;;4.63;3.97;;;;;;;;;;5055131;28;20491;-79
2023/09/03 09:29:00;;;;;;;11.13;4.73;;;;;;;;;;5046865;28;21004;-80
2023/09/03 09:31:26;;;;;;;4.00;3.70;;;;;;;;;;5045686;28;20538;-79
2023/09/03 09:33:53;;;;;;;5.00;4.43;;;;;;;;;;5053178;28;20472;-80
2023/09/03 09:36:19;;;;;;;5.77;4.30;;;;;;;;;;5055446;28;20498;-79
2023/09/03 09:38:46;;;;;;;6.43;4.30;;;;;;;;;;5069082;27;20529;-80
2023/09/03 09:41:22;;;;;;;4.73;4.00;;;;;;;;;;5045912;28;21343;-79
2023/09/03 09:43:52;;;;;;;4.37;3.97;;;;;;;;;;5044689;28;20552;-80
2023/09/03 09:46:28;;;;;;;4.23;3.60;;;;;;;;;;5055046;28;20484;-79
2023/09/03 09:48:55;;;;;;;4.13;3.73;;;;;;;;;;5047155;28;20513;-80
2023/09/03 09:51:22;;;;;;;6.07;3.97;;;;;;;;;;5059525;28;20926;-79
2023/09/03 09:53:54;;;;;;;4.43;3.87;;;;;;;;;;5045110;28;20860;-80
2023/09/03 09:56:20;;;;;;;5.20;3.57;;;;;;;;;;5051670;28;20474;-79
2023/09/03 09:58:48;;;;;;;3.50;3.17;;;;;;;;;;5046873;28;20480;-80
2023/09/03 10:01:15;;;;;;;3.27;3.07;;;;;;;;;;5049583;28;20493;-79
2023/09/03 10:03:42;;;;;;;7.33;3.03;;;;;;;;;;5046966;28;20479;-79
2023/09/03 10:06:09;;;;;;;4.47;3.00;;;;;;;;;;5042355;28;20485;-79
2023/09/03 10:08:36;;;;;;;5.17;3.00;;;;;;;;;;5058979;28;20825;-79
2023/09/03 10:11:03;;;;;;;3.87;3.07;;;;;;;;;;5066347;28;20523;-79
2023/09/03 10:13:29;;;;;;;3.40;2.80;;;;;;;;;;5046178;28;21305;-80
2023/09/03 10:15:56;;;;;;;4.70;3.90;;;;;;;;;;5055730;28;20470;-79
2023/09/03 10:18:25;;;;;;;3.63;3.33;;;;;;;;;;5035662;28;20465;-79
2023/09/03 10:20:51;;;;;;;7.27;3.80;;;;;;;;;;5044259;28;20481;-79
2023/09/03 10:23:19;;;;;;;4.10;3.70;;;;;;;;;;5045957;28;21002;-79
2023/09/03 10:25:46;;;;;;;3.50;2.90;;;;;;;;;;5041664;28;20467;-79
2023/09/03 10:28:13;;;;;;;3.03;2.33;;;;;;;;;;5047101;28;20921;-79
2023/09/03 10:30:42;;;;;;;2.90;2.70;;;;;;;;;;5052954;28;20464;-79
2023/09/03 10:33:09;;;;;;;3.67;2.40;;;;;;;;;;5046353;28;20481;-79
2023/09/03 10:35:37;;;;;;;6.83;3.17;;;;;;;;;;5054075;28;20878;-79
2023/09/03 10:38:06;;;;;;;5.60;2.83;;;;;;;;;;5050083;28;20483;-79
2023/09/03 10:40:33;;;;;;;5.20;3.00;;;;;;;;;;5050695;28;21044;-79
2023/09/03 10:43:14;;;;;;;3.60;2.50;;;;;;;;;;5052603;28;20489;-79
2023/09/03 10:45:40;;;;;;;3.47;2.53;;;;;;;;;;5051735;28;20487;-79
2023/09/03 10:48:07;;;;;;;2.87;2.30;;;;;;;;;;5051486;28;20489;-80
2023/09/03 10:50:45;;;;;;;4.97;2.20;;;;;;;;;;5052589;28;20483;-79
2023/09/03 10:53:26;;;;;;;3.93;2.47;;;;;;;;;;5047330;28;20562;-79
2023/09/03 10:56:06;;;;;;;6.47;2.70;;;;;;;;;;5047657;28;21027;-79
2023/09/03 10:58:32;;;;;;;2.80;2.53;;;;;;;;;;5058041;28;20482;-79
2023/09/03 11:01:18;;;;;;;3.77;3.20;;;;;;;;;;5042859;28;20487;-79
2023/09/03 11:03:48;;;;;;;3.53;2.10;;;;;;;;;;5063037;28;20482;-79
2023/09/03 11:06:17;;;;;;;5.43;2.47;;;;;;;;;;5044164;28;20492;-79
2023/09/03 11:08:43;;;;;;;2.20;2.00;;;;;;;;;;5053283;28;21026;-79
2023/09/03 11:11:11;;;;;;;2.70;2.30;;;;;;;;;;5050758;28;20476;-79
2023/09/03 11:13:37;;;;;;;5.17;2.70;;;;;;;;;;5053033;28;20487;-80
2023/09/03 11:16:05;;;;;;;3.10;2.50;;;;;;;;;;5043826;28;20474;-80
2023/09/03 11:18:32;;;;;;;2.40;2.20;;;;;;;;;;5048404;28;20557;-81
2023/09/03 11:20:59;;;;;;;2.70;2.37;;;;;;;;;;5046987;28;20872;-80
2023/09/03 11:23:29;;;;;;;2.70;2.27;;;;;;;;;;5066204;27;20481;-80
2023/09/03 11:25:55;;;;;;;3.03;2.40;;;;;;;;;;5052050;28;20475;-80
2023/09/03 11:28:22;;;;;;;2.67;2.00;;;;;;;;;;5053090;28;20486;-80
2023/09/03 11:30:48;;;;;;;3.40;2.50;;;;;;;;;;5044552;28;20480;-80
2023/09/03 11:33:24;;;;;;;4.20;2.30;;;;;;;;;;5038442;28;20490;-80
2023/09/03 11:35:50;;;;;;;2.43;2.20;;;;;;;;;;5047835;28;20506;-81
2023/09/03 11:38:18;;;;;;;3.57;2.50;;;;;;;;;;5055349;28;20549;-80
2023/09/03 11:40:46;;;;;;;3.20;2.10;;;;;;;;;;5055426;28;20478;-81
2023/09/03 11:43:13;;;;;;;2.47;1.90;;;;;;;;;;5054759;28;20471;-80
2023/09/03 11:45:39;;;;;;;3.93;2.10;;;;;;;;;;5046229;28;20469;-80
2023/09/03 11:48:07;;;;;;;4.30;2.60;;;;;;;;;;5059658;28;20497;-80
2023/09/03 11:50:34;;;;;;;3.43;2.60;;;;;;;;;;5051925;28;20559;-81
2023/09/03 11:53:04;;;;;;;3.63;2.43;;;;;;;;;;5039374;28;20488;-80
2023/09/03 11:55:32;;;;;;;2.93;2.57;;;;;;;;;;5036686;28;20473;-81
2023/09/03 11:58:01;;;;;;;2.63;2.40;;;;;;;;;;5051969;28;20477;-80
2023/09/03 12:00:28;;;;;;;2.50;2.00;;;;;;;;;;5056950;28;20487;-81
2023/09/03 12:02:55;;;;;;;2.73;2.53;;;;;;;;;;5051024;28;20856;-81
2023/09/03 12:05:22;;;;;;;3.50;2.10;;;;;;;;;;5049272;28;20561;-81
2023/09/03 12:07:48;;;;;;;3.03;2.23;;;;;;;;;;5052139;28;20506;-80
2023/09/03 12:10:17;;;;;;;2.90;2.67;;;;;;;;;;5055796;28;21039;-80
2023/09/03 12:12:44;;;;;;;2.07;1.87;;;;;;;;;;5058326;28;20510;-80
2023/09/03 12:15:18;;;;;;;3.07;2.20;;;;;;;;;;5050352;28;20472;-80
2023/09/03 12:17:45;;;;;;;3.93;2.70;;;;;;;;;;5037872;28;20487;-80
2023/09/03 12:20:26;;;;;;;5.00;2.63;;;;;;;;;;5052138;28;20471;-81
2023/09/03 12:22:52;;;;;;;3.33;2.37;;;;;;;;;;5053737;28;20463;-81
2023/09/03 12:25:20;;;;;;;4.50;2.77;;;;;;;;;;5053345;28;20460;-80
2023/09/03 12:27:50;;;;;;;2.17;1.83;;;;;;;;;;5054594;28;20483;-81
2023/09/03 12:30:19;;;;;;;3.57;1.70;;;;;;;;;;5049326;28;20477;-80
2023/09/03 12:32:46;;;;;;;7.57;2.43;;;;;;;;;;5052934;28;20466;-81
2023/09/03 12:35:16;;;;;;;2.00;1.90;;;;;;;;;;5048547;28;20880;-80
2023/09/03 12:37:42;;;;;;;3.30;2.03;;;;;;;;;;5044711;28;20967;-80
2023/09/03 12:40:10;;;;;;;3.13;2.03;;;;;;;;;;5050924;28;20468;-80
2023/09/03 12:42:36;;;;;;;3.70;2.13;;;;;;;;;;5045502;28;20472;-80
2023/09/03 12:45:03;;;;;;;3.97;2.43;;;;;;;;;;5047981;28;20469;-80
2023/09/03 12:47:31;;;;;;;2.87;1.77;;;;;;;;;;5052240;28;20498;-80
2023/09/03 12:49:57;;;;;;;2.63;2.10;;;;;;;;;;5040675;28;20463;-80
2023/09/03 12:52:23;;;;;;;2.07;1.83;;;;;;;;;;5054519;28;20540;-80
2023/09/03 12:54:50;;;;;;;5.13;2.17;;;;;;;;;;5058923;28;20464;-79
2023/09/03 12:57:16;;;;;;;2.50;1.90;;;;;;;;;;5058451;28;20480;-79
2023/09/03 12:59:42;;;;;;;3.33;2.10;;;;;;;;;;5043770;28;20475;-79
2023/09/03 13:02:09;;;;;;;5.13;2.23;;;;;;;;;;5051163;28;20491;-79
2023/09/03 13:04:36;;;;;;;7.17;2.03;;;;;;;;;;5051527;28;20491;-79
2023/09/03 13:07:03;;;;;;;2.00;1.50;;;;;;;;;;5053263;28;20487;-79
2023/09/03 13:09:30;;;;;;;4.00;2.17;;;;;;;;;;5058286;28;20474;-79
2023/09/03 13:11:56;;;;;;;2.43;1.67;;;;;;;;;;5046654;28;20476;-79
2023/09/03 13:14:23;;;;;;;2.80;1.90;;;;;;;;;;5043444;28;20834;-79
2023/09/03 13:16:50;;;;;;;2.40;2.03;;;;;;;;;;5040168;28;20488;-79
2023/09/03 13:19:16;;;;;;;2.73;2.20;;;;;;;;;;5050837;28;20472;-79
2023/09/03 13:21:44;;;;;;;3.90;1.60;;;;;;;;;;5063319;28;20463;-79
2023/09/03 13:24:10;;;;;;;2.10;1.80;;;;;;;;;;5046378;28;20470;-79
2023/09/03 13:26:37;;;;;;;2.37;2.10;;;;;;;;;;5055862;28;20484;-79
2023/09/03 13:29:03;;;;;;;2.60;2.00;;;;;;;;;;5040310;28;20478;-79
2023/09/03 13:31:29;;;;;;;2.10;1.90;;;;;;;;;;5049733;28;20998;-79
2023/09/03 13:33:56;;;;;;;4.77;1.90;;;;;;;;;;5047476;28;20847;-80
2023/09/03 13:36:22;;;;;;;2.33;1.73;;;;;;;;;;5049482;28;21050;-79
2023/09/03 13:38:52;;;;;;;2.70;1.60;;;;;;;;;;5040084;28;20492;-80
2023/09/03 13:41:19;;;;;;;2.50;2.23;;;;;;;;;;5046809;28;20510;-79
2023/09/03 13:43:47;;;;;;;3.83;2.10;;;;;;;;;;5060784;28;20486;-80
2023/09/03 13:46:13;;;;;;;2.33;1.90;;;;;;;;;;5060719;28;20547;-79
2023/09/03 13:48:41;;;;;;;2.97;1.93;;;;;;;;;;5053581;28;20537;-79
2023/09/03 13:51:11;;;;;;;2.50;1.90;;;;;;;;;;5044622;28;20476;-79
2023/09/03 13:53:38;;;;;;;3.20;1.93;;;;;;;;;;5056850;28;20511;-79
2023/09/03 13:56:06;;;;;;;2.60;1.57;;;;;;;;;;5050383;28;20691;-79
2023/09/03 13:58:32;;;;;;;2.27;2.00;;;;;;;;;;5050994;28;20488;-79
2023/09/03 14:01:01;;;;;;;2.70;2.00;;;;;;;;;;5050332;28;20464;-79
2023/09/03 14:03:27;;;;;;;4.43;1.90;;;;;;;;;;5048146;28;20478;-79
2023/09/03 14:06:03;;;;;;;1.77;1.60;;;;;;;;;;5055699;28;20481;-80
2023/09/03 14:08:29;;;;;;;3.03;2.00;;;;;;;;;;5043261;28;20487;-80
2023/09/03 14:10:57;;;;;;;5.13;1.87;;;;;;;;;;5052042;28;21845;-79
2023/09/03 14:13:27;;;;;;;4.23;1.97;;;;;;;;;;5047420;28;20493;-79
2023/09/03 14:15:53;;;;;;;2.27;2.07;;;;;;;;;;5055047;28;20480;-79
2023/09/03 14:18:19;;;;;;;2.80;1.80;;;;;;;;;;5052829;28;20493;-80
2023/09/03 14:20:47;;;;;;;2.70;1.83;;;;;;;;;;5045260;28;20469;-80
2023/09/03 14:23:13;;;;;;;1.90;1.67;;;;;;;;;;5058990;28;20538;-79
2023/09/03 14:25:40;;;;;;;3.50;2.07;;;;;;;;;;5056378;28;20834;-79
2023/09/03 14:28:06;;;;;;;2.00;1.87;;;;;;;;;;5069230;28;20992;-79
2023/09/03 14:30:36;;;;;;;3.07;1.77;;;;;;;;;;5054922;28;20459;-79
2023/09/03 14:33:02;;;;;;;1.53;1.30;;;;;;;;;;5045925;28;20625;-79
2023/09/03 14:35:29;;;;;;;1.47;1.37;;;;;;;;;;5050203;28;20906;-79